sensor_id;sensor_type;location;lat;lon;timestamp;P1;durP1;ratioP1;P2;durP2;ratioP2
15116;SDS011;7659;51.038;13.786;2023-12-20T00:00:04;3.90;;;3.38;;
15116;SDS011;7659;51.038;13.786;2023-12-20T00:02:32;3.45;;;2.60;;
15116;SDS011;7659;51.038;13.786;2023-12-20T00:04:57;4.10;;;3.30;;
15116;SDS011;7659;51.038;13.786;2023-12-20T00:07:22;3.10;;;2.40;;
15116;SDS011;7659;51.038;13.786;2023-12-20T00:09:48;3.42;;;2.63;;
15116;SDS011;7659;51.038;13.786;2023-12-20T00:12:13;4.32;;;2.60;;
15116;SDS011;7659;51.038;13.786;2023-12-20T00:14:39;4.35;;;2.83;;
15116;SDS011;7659;51.038;13.786;2023-12-20T00:17:04;3.83;;;2.80;;
15116;SDS011;7659;51.038;13.786;2023-12-20T00:19:30;3.60;;;2.80;;
15116;SDS011;7659;51.038;13.786;2023-12-20T00:21:55;3.40;;;2.90;;
15116;SDS011;7659;51.038;13.786;2023-12-20T00:24:21;5.15;;;3.22;;
15116;SDS011;7659;51.038;13.786;2023-12-20T00:26:46;4.18;;;3.00;;
15116;SDS011;7659;51.038;13.786;2023-12-20T00:29:12;2.83;;;2.30;;
15116;SDS011;7659;51.038;13.786;2023-12-20T00:31:37;4.20;;;2.72;;
15116;SDS011;7659;51.038;13.786;2023-12-20T00:34:03;2.85;;;2.30;;
15116;SDS011;7659;51.038;13.786;2023-12-20T00:36:28;3.28;;;2.70;;
15116;SDS011;7659;51.038;13.786;2023-12-20T00:38:54;3.08;;;2.60;;
15116;SDS011;7659;51.038;13.786;2023-12-20T00:41:19;6.10;;;2.60;;
15116;SDS011;7659;51.038;13.786;2023-12-20T00:43:45;3.95;;;2.60;;
15116;SDS011;7659;51.038;13.786;2023-12-20T00:46:10;3.05;;;2.05;;
15116;SDS011;7659;51.038;13.786;2023-12-20T00:48:36;2.45;;;1.92;;
15116;SDS011;7659;51.038;13.786;2023-12-20T00:51:01;2.25;;;1.80;;
15116;SDS011;7659;51.038;13.786;2023-12-20T00:53:27;2.55;;;1.80;;
15116;SDS011;7659;51.038;13.786;2023-12-20T00:55:53;2.30;;;1.80;;
15116;SDS011;7659;51.038;13.786;2023-12-20T00:58:18;2.97;;;1.98;;
15116;SDS011;7659;51.038;13.786;2023-12-20T01:00:44;2.92;;;2.10;;
15116;SDS011;7659;51.038;13.786;2023-12-20T01:03:09;2.67;;;2.08;;
15116;SDS011;7659;51.038;13.786;2023-12-20T01:05:35;2.05;;;1.60;;
15116;SDS011;7659;51.038;13.786;2023-12-20T01:08:00;2.70;;;1.50;;
15116;SDS011;7659;51.038;13.786;2023-12-20T01:10:28;2.47;;;2.00;;
15116;SDS011;7659;51.038;13.786;2023-12-20T01:12:54;2.50;;;1.58;;
15116;SDS011;7659;51.038;13.786;2023-12-20T01:15:20;2.38;;;1.50;;
15116;SDS011;7659;51.038;13.786;2023-12-20T01:17:45;1.73;;;1.50;;
15116;SDS011;7659;51.038;13.786;2023-12-20T01:20:11;2.05;;;1.40;;
15116;SDS011;7659;51.038;13.786;2023-12-20T01:22:36;1.67;;;1.45;;
15116;SDS011;7659;51.038;13.786;2023-12-20T01:25:02;2.35;;;1.63;;
15116;SDS011;7659;51.038;13.786;2023-12-20T01:27:28;3.05;;;1.90;;
15116;SDS011;7659;51.038;13.786;2023-12-20T01:29:53;1.52;;;1.10;;
15116;SDS011;7659;51.038;13.786;2023-12-20T01:32:19;2.67;;;1.33;;
15116;SDS011;7659;51.038;13.786;2023-12-20T01:34:45;1.63;;;1.33;;
15116;SDS011;7659;51.038;13.786;2023-12-20T01:37:10;1.60;;;1.23;;
15116;SDS011;7659;51.038;13.786;2023-12-20T01:39:35;4.28;;;1.23;;
15116;SDS011;7659;51.038;13.786;2023-12-20T01:42:01;3.70;;;1.42;;
15116;SDS011;7659;51.038;13.786;2023-12-20T01:44:27;2.08;;;1.30;;
15116;SDS011;7659;51.038;13.786;2023-12-20T01:46:53;1.42;;;1.17;;
15116;SDS011;7659;51.038;13.786;2023-12-20T01:49:18;1.38;;;1.10;;
15116;SDS011;7659;51.038;13.786;2023-12-20T01:51:44;1.15;;;0.93;;
15116;SDS011;7659;51.038;13.786;2023-12-20T01:54:10;1.98;;;1.33;;
15116;SDS011;7659;51.038;13.786;2023-12-20T01:56:35;1.48;;;1.33;;
15116;SDS011;7659;51.038;13.786;2023-12-20T01:59:01;1.30;;;1.15;;
15116;SDS011;7659;51.038;13.786;2023-12-20T02:01:27;1.13;;;1.00;;
15116;SDS011;7659;51.038;13.786;2023-12-20T02:03:53;1.40;;;0.90;;
15116;SDS011;7659;51.038;13.786;2023-12-20T02:06:19;1.20;;;1.02;;
15116;SDS011;7659;51.038;13.786;2023-12-20T02:08:46;1.30;;;1.00;;
15116;SDS011;7659;51.038;13.786;2023-12-20T02:11:12;1.45;;;1.10;;
15116;SDS011;7659;51.038;13.786;2023-12-20T02:13:37;0.93;;;0.85;;
15116;SDS011;7659;51.038;13.786;2023-12-20T02:16:03;1.60;;;1.17;;
15116;SDS011;7659;51.038;13.786;2023-12-20T02:18:29;1.27;;;0.90;;
15116;SDS011;7659;51.038;13.786;2023-12-20T02:20:54;1.00;;;0.85;;
15116;SDS011;7659;51.038;13.786;2023-12-20T02:23:21;0.82;;;0.82;;
15116;SDS011;7659;51.038;13.786;2023-12-20T02:25:46;0.73;;;0.70;;
15116;SDS011;7659;51.038;13.786;2023-12-20T02:28:11;0.98;;;0.70;;
15116;SDS011;7659;51.038;13.786;2023-12-20T02:30:37;0.75;;;0.63;;
15116;SDS011;7659;51.038;13.786;2023-12-20T02:33:03;0.80;;;0.80;;
15116;SDS011;7659;51.038;13.786;2023-12-20T02:35:28;0.98;;;0.80;;
15116;SDS011;7659;51.038;13.786;2023-12-20T02:37:54;0.60;;;0.60;;
15116;SDS011;7659;51.038;13.786;2023-12-20T02:40:19;1.10;;;0.95;;
15116;SDS011;7659;51.038;13.786;2023-12-20T02:42:45;1.35;;;0.70;;
15116;SDS011;7659;51.038;13.786;2023-12-20T02:45:10;0.90;;;0.50;;
15116;SDS011;7659;51.038;13.786;2023-12-20T02:47:36;0.82;;;0.70;;
15116;SDS011;7659;51.038;13.786;2023-12-20T02:50:01;1.40;;;0.77;;
15116;SDS011;7659;51.038;13.786;2023-12-20T02:52:28;0.65;;;0.50;;
15116;SDS011;7659;51.038;13.786;2023-12-20T02:54:54;0.68;;;0.55;;
15116;SDS011;7659;51.038;13.786;2023-12-20T02:57:19;1.10;;;0.60;;
15116;SDS011;7659;51.038;13.786;2023-12-20T02:59:45;0.90;;;0.68;;
15116;SDS011;7659;51.038;13.786;2023-12-20T03:02:10;0.50;;;0.40;;
15116;SDS011;7659;51.038;13.786;2023-12-20T03:04:35;1.70;;;0.50;;
15116;SDS011;7659;51.038;13.786;2023-12-20T03:07:01;0.88;;;0.47;;
15116;SDS011;7659;51.038;13.786;2023-12-20T03:09:26;0.47;;;0.47;;
15116;SDS011;7659;51.038;13.786;2023-12-20T03:11:52;0.82;;;0.65;;
15116;SDS011;7659;51.038;13.786;2023-12-20T03:14:17;1.27;;;0.50;;
15116;SDS011;7659;51.038;13.786;2023-12-20T03:16:46;0.55;;;0.55;;
15116;SDS011;7659;51.038;13.786;2023-12-20T03:19:12;0.30;;;0.30;;
15116;SDS011;7659;51.038;13.786;2023-12-20T03:21:37;1.38;;;0.93;;
15116;SDS011;7659;51.038;13.786;2023-12-20T03:24:03;0.50;;;0.50;;
15116;SDS011;7659;51.038;13.786;2023-12-20T03:26:28;0.43;;;0.43;;
15116;SDS011;7659;51.038;13.786;2023-12-20T03:28:54;1.23;;;0.80;;
15116;SDS011;7659;51.038;13.786;2023-12-20T03:31:19;1.52;;;0.50;;
15116;SDS011;7659;51.038;13.786;2023-12-20T03:33:46;0.80;;;0.50;;
15116;SDS011;7659;51.038;13.786;2023-12-20T03:36:11;0.32;;;0.32;;
15116;SDS011;7659;51.038;13.786;2023-12-20T03:38:37;0.63;;;0.50;;
15116;SDS011;7659;51.038;13.786;2023-12-20T03:41:02;0.55;;;0.47;;
15116;SDS011;7659;51.038;13.786;2023-12-20T03:43:28;1.15;;;0.50;;
15116;SDS011;7659;51.038;13.786;2023-12-20T03:45:53;3.72;;;0.52;;
15116;SDS011;7659;51.038;13.786;2023-12-20T03:48:19;0.68;;;0.60;;
15116;SDS011;7659;51.038;13.786;2023-12-20T03:50:44;0.90;;;0.40;;
15116;SDS011;7659;51.038;13.786;2023-12-20T03:53:09;0.50;;;0.47;;
15116;SDS011;7659;51.038;13.786;2023-12-20T03:55:35;0.30;;;0.30;;
15116;SDS011;7659;51.038;13.786;2023-12-20T03:58:01;0.57;;;0.38;;
15116;SDS011;7659;51.038;13.786;2023-12-20T04:00:26;0.95;;;0.57;;
15116;SDS011;7659;51.038;13.786;2023-12-20T04:02:51;0.57;;;0.50;;
15116;SDS011;7659;51.038;13.786;2023-12-20T04:05:17;0.70;;;0.50;;
15116;SDS011;7659;51.038;13.786;2023-12-20T04:07:43;0.63;;;0.40;;
15116;SDS011;7659;51.038;13.786;2023-12-20T04:10:09;0.40;;;0.30;;
15116;SDS011;7659;51.038;13.786;2023-12-20T04:12:34;0.60;;;0.30;;
15116;SDS011;7659;51.038;13.786;2023-12-20T04:15:00;0.43;;;0.38;;
15116;SDS011;7659;51.038;13.786;2023-12-20T04:17:25;0.30;;;0.30;;
15116;SDS011;7659;51.038;13.786;2023-12-20T04:19:51;3.30;;;0.45;;
15116;SDS011;7659;51.038;13.786;2023-12-20T04:22:17;0.40;;;0.30;;
15116;SDS011;7659;51.038;13.786;2023-12-20T04:24:42;0.40;;;0.40;;
15116;SDS011;7659;51.038;13.786;2023-12-20T04:27:08;0.50;;;0.50;;
15116;SDS011;7659;51.038;13.786;2023-12-20T04:29:34;0.35;;;0.30;;
15116;SDS011;7659;51.038;13.786;2023-12-20T04:31:59;1.95;;;0.43;;
15116;SDS011;7659;51.038;13.786;2023-12-20T04:34:25;0.45;;;0.32;;
15116;SDS011;7659;51.038;13.786;2023-12-20T04:36:51;0.25;;;0.25;;
15116;SDS011;7659;51.038;13.786;2023-12-20T04:39:16;0.30;;;0.30;;
15116;SDS011;7659;51.038;13.786;2023-12-20T04:41:42;0.57;;;0.30;;
15116;SDS011;7659;51.038;13.786;2023-12-20T04:44:07;0.30;;;0.30;;
15116;SDS011;7659;51.038;13.786;2023-12-20T04:46:33;0.40;;;0.40;;
15116;SDS011;7659;51.038;13.786;2023-12-20T04:48:58;0.50;;;0.40;;
15116;SDS011;7659;51.038;13.786;2023-12-20T04:51:24;0.60;;;0.30;;
15116;SDS011;7659;51.038;13.786;2023-12-20T04:53:49;0.45;;;0.40;;
15116;SDS011;7659;51.038;13.786;2023-12-20T04:56:15;0.60;;;0.55;;
15116;SDS011;7659;51.038;13.786;2023-12-20T04:58:40;1.23;;;0.45;;
15116;SDS011;7659;51.038;13.786;2023-12-20T05:01:06;1.98;;;0.40;;
15116;SDS011;7659;51.038;13.786;2023-12-20T05:03:31;0.40;;;0.40;;
15116;SDS011;7659;51.038;13.786;2023-12-20T05:05:57;1.08;;;0.40;;
15116;SDS011;7659;51.038;13.786;2023-12-20T05:08:22;0.47;;;0.40;;
15116;SDS011;7659;51.038;13.786;2023-12-20T05:10:48;0.40;;;0.40;;
15116;SDS011;7659;51.038;13.786;2023-12-20T05:13:13;0.40;;;0.40;;
15116;SDS011;7659;51.038;13.786;2023-12-20T05:15:38;1.77;;;0.50;;
15116;SDS011;7659;51.038;13.786;2023-12-20T05:18:04;1.30;;;0.55;;
15116;SDS011;7659;51.038;13.786;2023-12-20T05:20:29;1.00;;;0.40;;
15116;SDS011;7659;51.038;13.786;2023-12-20T05:22:55;1.05;;;0.40;;
15116;SDS011;7659;51.038;13.786;2023-12-20T05:25:20;0.60;;;0.40;;
15116;SDS011;7659;51.038;13.786;2023-12-20T05:27:46;0.30;;;0.30;;
15116;SDS011;7659;51.038;13.786;2023-12-20T05:30:11;0.82;;;0.40;;
15116;SDS011;7659;51.038;13.786;2023-12-20T05:32:37;0.52;;;0.30;;
15116;SDS011;7659;51.038;13.786;2023-12-20T05:35:02;0.50;;;0.40;;
15116;SDS011;7659;51.038;13.786;2023-12-20T05:37:28;0.35;;;0.30;;
15116;SDS011;7659;51.038;13.786;2023-12-20T05:39:54;0.30;;;0.30;;
15116;SDS011;7659;51.038;13.786;2023-12-20T05:42:19;0.40;;;0.30;;
15116;SDS011;7659;51.038;13.786;2023-12-20T05:44:45;0.40;;;0.40;;
15116;SDS011;7659;51.038;13.786;2023-12-20T05:47:10;0.45;;;0.43;;
15116;SDS011;7659;51.038;13.786;2023-12-20T05:49:36;0.47;;;0.47;;
15116;SDS011;7659;51.038;13.786;2023-12-20T05:52:01;0.75;;;0.47;;
15116;SDS011;7659;51.038;13.786;2023-12-20T05:54:26;3.53;;;0.40;;
15116;SDS011;7659;51.038;13.786;2023-12-20T05:56:52;0.75;;;0.70;;
15116;SDS011;7659;51.038;13.786;2023-12-20T05:59:17;0.63;;;0.45;;
15116;SDS011;7659;51.038;13.786;2023-12-20T06:01:43;1.00;;;0.40;;
15116;SDS011;7659;51.038;13.786;2023-12-20T06:04:08;0.93;;;0.70;;
15116;SDS011;7659;51.038;13.786;2023-12-20T06:06:34;0.45;;;0.45;;
15116;SDS011;7659;51.038;13.786;2023-12-20T06:08:59;0.40;;;0.40;;
15116;SDS011;7659;51.038;13.786;2023-12-20T06:11:25;1.25;;;0.50;;
15116;SDS011;7659;51.038;13.786;2023-12-20T06:13:51;1.38;;;0.40;;
15116;SDS011;7659;51.038;13.786;2023-12-20T06:16:18;0.30;;;0.30;;
15116;SDS011;7659;51.038;13.786;2023-12-20T06:18:43;0.82;;;0.45;;
15116;SDS011;7659;51.038;13.786;2023-12-20T06:21:09;0.47;;;0.45;;
15116;SDS011;7659;51.038;13.786;2023-12-20T06:23:38;0.68;;;0.50;;
15116;SDS011;7659;51.038;13.786;2023-12-20T06:26:03;0.75;;;0.52;;
15116;SDS011;7659;51.038;13.786;2023-12-20T06:28:29;1.67;;;0.50;;
15116;SDS011;7659;51.038;13.786;2023-12-20T06:30:54;0.38;;;0.38;;
15116;SDS011;7659;51.038;13.786;2023-12-20T06:33:20;0.55;;;0.40;;
15116;SDS011;7659;51.038;13.786;2023-12-20T06:35:47;0.77;;;0.40;;
15116;SDS011;7659;51.038;13.786;2023-12-20T06:38:12;0.60;;;0.50;;
15116;SDS011;7659;51.038;13.786;2023-12-20T06:40:38;2.30;;;0.90;;
15116;SDS011;7659;51.038;13.786;2023-12-20T06:43:03;1.95;;;1.23;;
15116;SDS011;7659;51.038;13.786;2023-12-20T06:45:29;1.48;;;1.10;;
15116;SDS011;7659;51.038;13.786;2023-12-20T06:47:54;0.80;;;0.70;;
15116;SDS011;7659;51.038;13.786;2023-12-20T06:50:20;2.10;;;1.00;;
15116;SDS011;7659;51.038;13.786;2023-12-20T06:52:45;1.40;;;1.02;;
15116;SDS011;7659;51.038;13.786;2023-12-20T06:55:11;1.20;;;0.90;;
15116;SDS011;7659;51.038;13.786;2023-12-20T06:57:36;3.35;;;1.50;;
15116;SDS011;7659;51.038;13.786;2023-12-20T07:00:02;2.08;;;1.02;;
15116;SDS011;7659;51.038;13.786;2023-12-20T07:02:28;4.35;;;1.75;;
15116;SDS011;7659;51.038;13.786;2023-12-20T07:04:55;2.08;;;1.65;;
15116;SDS011;7659;51.038;13.786;2023-12-20T07:07:21;2.72;;;1.52;;
15116;SDS011;7659;51.038;13.786;2023-12-20T07:09:48;1.40;;;1.30;;
15116;SDS011;7659;51.038;13.786;2023-12-20T07:12:14;1.77;;;1.40;;
15116;SDS011;7659;51.038;13.786;2023-12-20T07:14:39;3.65;;;1.58;;
15116;SDS011;7659;51.038;13.786;2023-12-20T07:17:05;1.42;;;1.30;;
15116;SDS011;7659;51.038;13.786;2023-12-20T07:19:32;1.30;;;1.13;;
15116;SDS011;7659;51.038;13.786;2023-12-20T07:21:57;1.73;;;1.25;;
15116;SDS011;7659;51.038;13.786;2023-12-20T07:24:23;1.98;;;1.15;;
15116;SDS011;7659;51.038;13.786;2023-12-20T07:26:48;1.30;;;1.20;;
15116;SDS011;7659;51.038;13.786;2023-12-20T07:29:14;2.75;;;1.27;;
15116;SDS011;7659;51.038;13.786;2023-12-20T07:31:39;3.05;;;1.30;;
15116;SDS011;7659;51.038;13.786;2023-12-20T07:34:05;2.72;;;1.70;;
15116;SDS011;7659;51.038;13.786;2023-12-20T07:36:30;2.65;;;1.50;;
15116;SDS011;7659;51.038;13.786;2023-12-20T07:38:56;2.63;;;1.95;;
15116;SDS011;7659;51.038;13.786;2023-12-20T07:41:21;2.67;;;1.75;;
15116;SDS011;7659;51.038;13.786;2023-12-20T07:43:48;2.00;;;1.40;;
15116;SDS011;7659;51.038;13.786;2023-12-20T07:46:14;1.88;;;1.60;;
15116;SDS011;7659;51.038;13.786;2023-12-20T07:48:40;2.70;;;1.70;;
15116;SDS011;7659;51.038;13.786;2023-12-20T07:51:06;1.67;;;1.50;;
15116;SDS011;7659;51.038;13.786;2023-12-20T07:53:33;2.03;;;1.50;;
15116;SDS011;7659;51.038;13.786;2023-12-20T07:55:59;2.95;;;1.70;;
15116;SDS011;7659;51.038;13.786;2023-12-20T07:58:25;2.50;;;1.80;;
15116;SDS011;7659;51.038;13.786;2023-12-20T08:00:50;3.83;;;1.75;;
15116;SDS011;7659;51.038;13.786;2023-12-20T08:03:15;3.78;;;2.30;;
15116;SDS011;7659;51.038;13.786;2023-12-20T08:05:41;3.28;;;1.70;;
15116;SDS011;7659;51.038;13.786;2023-12-20T08:08:07;3.33;;;1.83;;
15116;SDS011;7659;51.038;13.786;2023-12-20T08:10:32;2.83;;;2.10;;
15116;SDS011;7659;51.038;13.786;2023-12-20T08:12:58;3.38;;;2.10;;
15116;SDS011;7659;51.038;13.786;2023-12-20T08:15:23;3.47;;;1.70;;
15116;SDS011;7659;51.038;13.786;2023-12-20T08:17:49;2.00;;;1.80;;
15116;SDS011;7659;51.038;13.786;2023-12-20T08:20:16;2.25;;;1.67;;
15116;SDS011;7659;51.038;13.786;2023-12-20T08:22:41;3.10;;;1.50;;
15116;SDS011;7659;51.038;13.786;2023-12-20T08:25:07;1.63;;;1.30;;
15116;SDS011;7659;51.038;13.786;2023-12-20T08:27:33;5.20;;;1.95;;
15116;SDS011;7659;51.038;13.786;2023-12-20T08:29:59;3.00;;;1.40;;
15116;SDS011;7659;51.038;13.786;2023-12-20T08:32:25;3.15;;;1.70;;
15116;SDS011;7659;51.038;13.786;2023-12-20T08:34:51;2.70;;;1.40;;
15116;SDS011;7659;51.038;13.786;2023-12-20T08:37:16;2.78;;;1.60;;
15116;SDS011;7659;51.038;13.786;2023-12-20T08:39:44;2.30;;;1.50;;
15116;SDS011;7659;51.038;13.786;2023-12-20T08:42:10;3.92;;;1.75;;
15116;SDS011;7659;51.038;13.786;2023-12-20T08:44:35;2.67;;;1.48;;
15116;SDS011;7659;51.038;13.786;2023-12-20T08:47:01;10.50;;;4.88;;
15116;SDS011;7659;51.038;13.786;2023-12-20T08:49:26;3.30;;;1.30;;
15116;SDS011;7659;51.038;13.786;2023-12-20T08:51:53;2.47;;;1.00;;
15116;SDS011;7659;51.038;13.786;2023-12-20T08:54:18;4.95;;;1.92;;
15116;SDS011;7659;51.038;13.786;2023-12-20T08:56:44;2.67;;;1.27;;
15116;SDS011;7659;51.038;13.786;2023-12-20T08:59:11;2.75;;;1.42;;
15116;SDS011;7659;51.038;13.786;2023-12-20T09:01:37;2.28;;;1.25;;
15116;SDS011;7659;51.038;13.786;2023-12-20T09:04:02;2.85;;;1.02;;
15116;SDS011;7659;51.038;13.786;2023-12-20T09:06:28;3.88;;;1.15;;
15116;SDS011;7659;51.038;13.786;2023-12-20T09:08:53;3.67;;;1.05;;
15116;SDS011;7659;51.038;13.786;2023-12-20T09:11:19;3.08;;;0.85;;
15116;SDS011;7659;51.038;13.786;2023-12-20T09:13:45;8.70;;;1.35;;
15116;SDS011;7659;51.038;13.786;2023-12-20T09:16:10;2.30;;;1.25;;
15116;SDS011;7659;51.038;13.786;2023-12-20T09:18:36;4.82;;;0.95;;
15116;SDS011;7659;51.038;13.786;2023-12-20T09:21:02;5.30;;;0.88;;
15116;SDS011;7659;51.038;13.786;2023-12-20T09:23:27;6.43;;;1.02;;
15116;SDS011;7659;51.038;13.786;2023-12-20T09:25:53;4.72;;;0.95;;
15116;SDS011;7659;51.038;13.786;2023-12-20T09:28:19;5.60;;;1.02;;
15116;SDS011;7659;51.038;13.786;2023-12-20T09:30:45;5.57;;;2.47;;
15116;SDS011;7659;51.038;13.786;2023-12-20T09:33:11;6.15;;;1.48;;
15116;SDS011;7659;51.038;13.786;2023-12-20T09:35:37;5.00;;;1.02;;
15116;SDS011;7659;51.038;13.786;2023-12-20T09:38:03;3.80;;;1.13;;
15116;SDS011;7659;51.038;13.786;2023-12-20T09:40:29;4.47;;;1.20;;
15116;SDS011;7659;51.038;13.786;2023-12-20T09:42:57;3.13;;;0.77;;
15116;SDS011;7659;51.038;13.786;2023-12-20T09:45:23;4.05;;;1.20;;
15116;SDS011;7659;51.038;13.786;2023-12-20T09:47:50;3.70;;;0.90;;
15116;SDS011;7659;51.038;13.786;2023-12-20T09:50:15;3.00;;;1.00;;
15116;SDS011;7659;51.038;13.786;2023-12-20T09:52:41;3.55;;;0.85;;
15116;SDS011;7659;51.038;13.786;2023-12-20T09:55:08;2.20;;;0.73;;
15116;SDS011;7659;51.038;13.786;2023-12-20T09:57:35;3.72;;;1.10;;
15116;SDS011;7659;51.038;13.786;2023-12-20T10:00:00;2.47;;;1.15;;
15116;SDS011;7659;51.038;13.786;2023-12-20T10:02:26;11.52;;;1.40;;
15116;SDS011;7659;51.038;13.786;2023-12-20T10:04:55;3.17;;;1.00;;
15116;SDS011;7659;51.038;13.786;2023-12-20T10:07:21;6.03;;;1.27;;
15116;SDS011;7659;51.038;13.786;2023-12-20T10:09:51;3.30;;;0.98;;
15116;SDS011;7659;51.038;13.786;2023-12-20T10:12:18;3.70;;;1.13;;
15116;SDS011;7659;51.038;13.786;2023-12-20T10:14:44;5.95;;;2.15;;
15116;SDS011;7659;51.038;13.786;2023-12-20T10:17:09;8.68;;;1.40;;
15116;SDS011;7659;51.038;13.786;2023-12-20T10:19:36;5.30;;;1.23;;
15116;SDS011;7659;51.038;13.786;2023-12-20T10:22:03;5.85;;;1.38;;
15116;SDS011;7659;51.038;13.786;2023-12-20T10:24:29;4.05;;;1.25;;
15116;SDS011;7659;51.038;13.786;2023-12-20T10:27:04;4.10;;;1.10;;
15116;SDS011;7659;51.038;13.786;2023-12-20T10:29:36;3.78;;;1.10;;
15116;SDS011;7659;51.038;13.786;2023-12-20T10:35:03;6.82;;;0.93;;
15116;SDS011;7659;51.038;13.786;2023-12-20T10:37:29;4.50;;;0.90;;
15116;SDS011;7659;51.038;13.786;2023-12-20T10:39:55;4.28;;;0.82;;
15116;SDS011;7659;51.038;13.786;2023-12-20T10:42:26;2.67;;;1.10;;
15116;SDS011;7659;51.038;13.786;2023-12-20T10:44:52;2.92;;;0.80;;
15116;SDS011;7659;51.038;13.786;2023-12-20T10:47:19;3.42;;;1.02;;
15116;SDS011;7659;51.038;13.786;2023-12-20T10:49:45;10.63;;;1.63;;
15116;SDS011;7659;51.038;13.786;2023-12-20T10:52:11;4.63;;;1.17;;
15116;SDS011;7659;51.038;13.786;2023-12-20T10:54:37;5.75;;;2.33;;
15116;SDS011;7659;51.038;13.786;2023-12-20T10:57:03;7.38;;;1.80;;
15116;SDS011;7659;51.038;13.786;2023-12-20T10:59:31;6.72;;;1.42;;
15116;SDS011;7659;51.038;13.786;2023-12-20T11:01:58;3.53;;;0.82;;
15116;SDS011;7659;51.038;13.786;2023-12-20T11:04:25;4.75;;;1.60;;
15116;SDS011;7659;51.038;13.786;2023-12-20T11:06:56;5.47;;;1.33;;
15116;SDS011;7659;51.038;13.786;2023-12-20T11:09:26;7.43;;;1.40;;
15116;SDS011;7659;51.038;13.786;2023-12-20T11:14:53;4.70;;;1.35;;
15116;SDS011;7659;51.038;13.786;2023-12-20T11:17:18;6.07;;;1.50;;
15116;SDS011;7659;51.038;13.786;2023-12-20T11:22:15;3.88;;;0.90;;
15116;SDS011;7659;51.038;13.786;2023-12-20T11:24:44;5.85;;;1.35;;
15116;SDS011;7659;51.038;13.786;2023-12-20T11:27:09;5.20;;;1.23;;
15116;SDS011;7659;51.038;13.786;2023-12-20T11:29:35;3.53;;;1.10;;
15116;SDS011;7659;51.038;13.786;2023-12-20T11:32:27;5.78;;;1.10;;
15116;SDS011;7659;51.038;13.786;2023-12-20T11:34:47;5.45;;;1.00;;
15116;SDS011;7659;51.038;13.786;2023-12-20T11:37:12;6.97;;;1.73;;
15116;SDS011;7659;51.038;13.786;2023-12-20T11:39:38;5.55;;;1.13;;
15116;SDS011;7659;51.038;13.786;2023-12-20T11:42:04;5.40;;;1.20;;
15116;SDS011;7659;51.038;13.786;2023-12-20T11:44:30;5.93;;;1.13;;
15116;SDS011;7659;51.038;13.786;2023-12-20T11:46:55;4.95;;;1.70;;
15116;SDS011;7659;51.038;13.786;2023-12-20T11:49:24;6.28;;;1.20;;
15116;SDS011;7659;51.038;13.786;2023-12-20T11:51:50;4.38;;;1.50;;
15116;SDS011;7659;51.038;13.786;2023-12-20T11:54:16;4.45;;;1.33;;
15116;SDS011;7659;51.038;13.786;2023-12-20T11:56:42;4.88;;;1.90;;
15116;SDS011;7659;51.038;13.786;2023-12-20T11:59:08;6.88;;;1.30;;
15116;SDS011;7659;51.038;13.786;2023-12-20T12:01:34;3.47;;;1.25;;
15116;SDS011;7659;51.038;13.786;2023-12-20T12:04:04;4.18;;;1.27;;
15116;SDS011;7659;51.038;13.786;2023-12-20T12:06:30;7.25;;;1.48;;
15116;SDS011;7659;51.038;13.786;2023-12-20T12:08:55;5.20;;;1.30;;
15116;SDS011;7659;51.038;13.786;2023-12-20T12:11:21;6.75;;;1.52;;
15116;SDS011;7659;51.038;13.786;2023-12-20T12:13:47;4.55;;;1.67;;
15116;SDS011;7659;51.038;13.786;2023-12-20T12:16:13;10.35;;;1.50;;
15116;SDS011;7659;51.038;13.786;2023-12-20T12:18:42;3.25;;;1.27;;
15116;SDS011;7659;51.038;13.786;2023-12-20T12:21:19;6.53;;;1.30;;
15116;SDS011;7659;51.038;13.786;2023-12-20T12:23:46;10.30;;;1.83;;
15116;SDS011;7659;51.038;13.786;2023-12-20T12:26:11;5.00;;;1.30;;
15116;SDS011;7659;51.038;13.786;2023-12-20T12:28:39;5.10;;;1.50;;
15116;SDS011;7659;51.038;13.786;2023-12-20T12:31:05;3.58;;;1.08;;
15116;SDS011;7659;51.038;13.786;2023-12-20T12:33:30;6.93;;;1.00;;
15116;SDS011;7659;51.038;13.786;2023-12-20T12:35:56;5.30;;;1.20;;
15116;SDS011;7659;51.038;13.786;2023-12-20T12:38:22;7.32;;;1.85;;
15116;SDS011;7659;51.038;13.786;2023-12-20T12:40:51;6.55;;;1.23;;
15116;SDS011;7659;51.038;13.786;2023-12-20T12:43:19;8.65;;;1.50;;
15116;SDS011;7659;51.038;13.786;2023-12-20T12:45:44;4.18;;;1.02;;
15116;SDS011;7659;51.038;13.786;2023-12-20T12:48:11;8.27;;;1.10;;
15116;SDS011;7659;51.038;13.786;2023-12-20T12:50:37;4.65;;;1.15;;
15116;SDS011;7659;51.038;13.786;2023-12-20T12:53:04;4.53;;;1.42;;
15116;SDS011;7659;51.038;13.786;2023-12-20T12:55:29;7.25;;;1.25;;
15116;SDS011;7659;51.038;13.786;2023-12-20T12:57:55;5.97;;;1.35;;
15116;SDS011;7659;51.038;13.786;2023-12-20T13:00:21;4.95;;;1.58;;
15116;SDS011;7659;51.038;13.786;2023-12-20T13:02:47;6.15;;;1.95;;
15116;SDS011;7659;51.038;13.786;2023-12-20T13:05:12;6.35;;;1.15;;
15116;SDS011;7659;51.038;13.786;2023-12-20T13:07:38;10.27;;;1.60;;
15116;SDS011;7659;51.038;13.786;2023-12-20T13:10:05;5.68;;;1.30;;
15116;SDS011;7659;51.038;13.786;2023-12-20T13:12:31;3.22;;;0.90;;
15116;SDS011;7659;51.038;13.786;2023-12-20T13:14:57;6.20;;;1.08;;
15116;SDS011;7659;51.038;13.786;2023-12-20T13:17:23;10.32;;;1.42;;
15116;SDS011;7659;51.038;13.786;2023-12-20T13:19:48;4.68;;;1.50;;
15116;SDS011;7659;51.038;13.786;2023-12-20T13:22:15;5.03;;;1.33;;
15116;SDS011;7659;51.038;13.786;2023-12-20T13:24:41;3.67;;;1.20;;
15116;SDS011;7659;51.038;13.786;2023-12-20T13:27:09;4.05;;;0.98;;
15116;SDS011;7659;51.038;13.786;2023-12-20T13:29:35;4.82;;;1.40;;
15116;SDS011;7659;51.038;13.786;2023-12-20T13:32:00;4.90;;;1.20;;
15116;SDS011;7659;51.038;13.786;2023-12-20T13:34:26;5.55;;;1.42;;
15116;SDS011;7659;51.038;13.786;2023-12-20T13:36:52;11.05;;;1.40;;
15116;SDS011;7659;51.038;13.786;2023-12-20T13:39:20;5.88;;;1.67;;
15116;SDS011;7659;51.038;13.786;2023-12-20T13:41:46;3.72;;;1.40;;
15116;SDS011;7659;51.038;13.786;2023-12-20T13:44:12;7.38;;;1.35;;
15116;SDS011;7659;51.038;13.786;2023-12-20T13:46:38;9.57;;;2.97;;
15116;SDS011;7659;51.038;13.786;2023-12-20T13:49:04;5.95;;;1.35;;
15116;SDS011;7659;51.038;13.786;2023-12-20T13:51:30;7.22;;;1.30;;
15116;SDS011;7659;51.038;13.786;2023-12-20T13:53:56;9.55;;;1.20;;
15116;SDS011;7659;51.038;13.786;2023-12-20T13:56:25;10.57;;;1.38;;
15116;SDS011;7659;51.038;13.786;2023-12-20T13:58:51;5.25;;;1.27;;
15116;SDS011;7659;51.038;13.786;2023-12-20T14:01:17;5.70;;;1.42;;
15116;SDS011;7659;51.038;13.786;2023-12-20T14:03:42;6.28;;;1.20;;
15116;SDS011;7659;51.038;13.786;2023-12-20T14:06:08;3.10;;;1.13;;
15116;SDS011;7659;51.038;13.786;2023-12-20T14:08:33;6.30;;;1.75;;
15116;SDS011;7659;51.038;13.786;2023-12-20T14:10:59;7.35;;;1.38;;
15116;SDS011;7659;51.038;13.786;2023-12-20T14:13:26;7.72;;;1.63;;
15116;SDS011;7659;51.038;13.786;2023-12-20T14:15:52;3.75;;;1.25;;
15116;SDS011;7659;51.038;13.786;2023-12-20T14:18:19;4.00;;;1.15;;
15116;SDS011;7659;51.038;13.786;2023-12-20T14:20:45;5.63;;;1.02;;
15116;SDS011;7659;51.038;13.786;2023-12-20T14:23:12;5.35;;;1.25;;
15116;SDS011;7659;51.038;13.786;2023-12-20T14:25:41;5.80;;;1.30;;
15116;SDS011;7659;51.038;13.786;2023-12-20T14:28:06;4.25;;;1.20;;
15116;SDS011;7659;51.038;13.786;2023-12-20T14:30:32;5.65;;;1.17;;
15116;SDS011;7659;51.038;13.786;2023-12-20T14:32:57;3.60;;;1.00;;
15116;SDS011;7659;51.038;13.786;2023-12-20T14:35:23;2.13;;;0.95;;
15116;SDS011;7659;51.038;13.786;2023-12-20T14:37:49;3.40;;;0.98;;
15116;SDS011;7659;51.038;13.786;2023-12-20T14:40:15;8.82;;;1.27;;
15116;SDS011;7659;51.038;13.786;2023-12-20T14:42:42;11.50;;;4.25;;
15116;SDS011;7659;51.038;13.786;2023-12-20T14:45:11;9.90;;;3.22;;
15116;SDS011;7659;51.038;13.786;2023-12-20T14:47:36;3.85;;;0.93;;